createdAt,value
2022-08-18T00:12:13.357Z,0
2022-08-18T00:21:50.166Z,0
2022-08-18T00:31:27.114Z,0
2022-08-18T00:41:04.055Z,0
2022-08-18T00:50:40.833Z,0
2022-08-18T01:29:09.418Z,0
2022-08-18T01:38:46.890Z,0
2022-08-18T01:48:23.909Z,0
2022-08-18T01:58:00.755Z,0
2022-08-18T02:07:37.806Z,0
2022-08-18T02:17:14.982Z,0
2022-08-18T02:36:30.029Z,0
2022-08-18T02:46:07.504Z,0
2022-08-18T03:05:22.011Z,0
2022-08-18T03:14:59.171Z,0
2022-08-18T03:24:36.278Z,0
2022-08-18T03:34:13.723Z,0
2022-08-18T03:43:51.843Z,0
2022-08-18T03:53:28.154Z,0
2022-08-18T04:03:05.819Z,0
2022-08-18T04:12:43.209Z,5.63
2022-08-18T04:22:20.090Z,11.25
2022-08-18T04:31:57.599Z,16.88
2022-08-18T04:51:13.209Z,45
2022-08-18T05:00:51.401Z,61.88
2022-08-18T05:29:46.368Z,78.75
2022-08-18T05:39:23.672Z,101.25
2022-08-18T05:49:01.226Z,101.25
2022-08-18T05:58:38.925Z,118.13
2022-08-18T06:08:16.609Z,118.13
2022-08-18T06:27:31.701Z,90
2022-08-18T06:37:09.509Z,90
2022-08-18T06:46:46.944Z,95.63
2022-08-18T06:56:25.715Z,95.63
2022-08-18T07:15:40.112Z,191.25
2022-08-18T07:54:31.448Z,337.5
2022-08-18T08:03:51.658Z,213.75
2022-08-18T08:13:51.700Z,174.38
2022-08-18T08:23:03.293Z,101.25
2022-08-18T08:32:39.658Z,78.75
2022-08-18T08:42:30.003Z,90
2022-08-18T08:51:52.874Z,95.63
2022-08-18T09:01:30.769Z,180
2022-08-18T09:11:07.963Z,135
2022-08-18T09:20:49.147Z,230.63
2022-08-18T09:30:23.593Z,112.5
2022-08-18T09:40:10.779Z,196.88
2022-08-18T09:49:38.134Z,196.88
2022-08-18T09:59:14.196Z,180
2022-08-18T10:18:27.931Z,213.75
2022-08-18T10:28:06.359Z,309.38
2022-08-18T10:37:43.806Z,258.75
2022-08-18T10:47:24.664Z,360
2022-08-18T11:06:37.597Z,421.88
2022-08-18T11:35:31.602Z,309.38
2022-08-18T11:45:08.247Z,376.88
2022-08-18T11:54:50.466Z,433.13
2022-08-18T12:04:23.881Z,275.63
2022-08-18T12:14:00.430Z,208.13
2022-08-18T12:33:14.112Z,168.75
2022-08-18T12:42:51.496Z,236.25
2022-08-18T12:52:30.321Z,410.63
2022-08-18T13:02:08.157Z,354.38
2022-08-18T13:21:22.297Z,348.75
2022-08-18T13:31:02.211Z,528.75
2022-08-18T14:19:29.866Z,928.13
2022-08-18T14:29:07.993Z,1468.13
2022-08-18T14:38:49.767Z,1631.25
2022-08-18T14:48:38.306Z,1265.63
2022-08-18T14:58:18.814Z,1951.88
2022-08-18T15:08:02.756Z,1681.88
2022-08-18T15:27:10.346Z,528.75
2022-08-18T15:36:39.514Z,556.88
2022-08-18T15:46:17.118Z,753.75
2022-08-18T15:55:57.567Z,787.5
2022-08-18T16:05:32.857Z,393.75
2022-08-18T16:24:42.628Z,275.63
2022-08-18T16:34:18.873Z,275.63
2022-08-18T16:43:56.053Z,275.63
2022-08-18T16:53:39.752Z,213.75
2022-08-18T17:03:09.017Z,174.38
2022-08-18T17:12:45.516Z,157.5
2022-08-18T17:22:22.543Z,135
2022-08-18T17:31:59.325Z,106.88
2022-08-18T17:41:36.062Z,90
2022-08-18T18:00:49.241Z,33.75
2022-08-18T18:10:25.981Z,11.25
2022-08-18T18:20:03.319Z,5.63
2022-08-18T18:29:40.214Z,0
2022-08-18T18:39:17.259Z,0
2022-08-18T19:08:08.857Z,0
2022-08-18T19:17:46.256Z,0
2022-08-18T19:27:23.712Z,0
2022-08-18T19:56:14.276Z,0
2022-08-18T20:05:52.038Z,0
2022-08-18T20:15:29.368Z,0
2022-08-18T20:25:06.423Z,0
2022-08-18T20:34:43.163Z,0
2022-08-18T20:53:57.234Z,0
2022-08-18T21:03:34.529Z,0
2022-08-18T21:13:11.543Z,0
2022-08-18T21:22:48.896Z,0
2022-08-18T21:32:25.339Z,0
2022-08-18T21:42:02.683Z,0
2022-08-18T22:01:16.874Z,0
2022-08-18T22:10:54.124Z,0
2022-08-18T22:20:31.401Z,0
2022-08-18T22:30:08.733Z,0
2022-08-18T22:39:45.987Z,0
2022-08-18T22:49:24.932Z,0
2022-08-18T22:59:00.193Z,0
2022-08-18T23:08:54.519Z,0
2022-08-18T23:18:14.195Z,0
2022-08-18T23:27:51.147Z,0
2022-08-18T23:37:28.152Z,0
2022-08-18T23:47:05.290Z,0
2022-08-18T23:56:42.899Z,0
